Time;durP1;ratioP1;P1;durP2;ratioP2;P2;SDS_P1;SDS_P2;PMS_P1;PMS_P2;Temp;Humidity;BMP_temperature;BMP_pressure;BME280_temperature;BME280_humidity;BME280_pressure;Samples;Min_cycle;Max_cycle;Signal;HPM_P1;HPM_P2
2024/02/24 00:03:46;;;;;;;;;;;;;;;2.66;100.00;94015.28;10370290;28;2257;-65
2024/02/24 00:08:48;;;;;;;;;;;;;;;2.66;100.00;94009.97;10373387;28;1500;-64
2024/02/24 00:13:51;;;;;;;;;;;;;;;2.65;100.00;94013.72;10371738;28;1910;-65
2024/02/24 00:18:55;;;;;;;;;;;;;;;2.61;100.00;94011.88;10367860;28;1823;-65
2024/02/24 00:23:58;;;;;;;;;;;;;;;2.55;100.00;94016.38;10367643;28;1349;-65
2024/02/24 00:29:00;;;;;;;;;;;;;;;2.52;100.00;94030.16;10371236;28;1405;-66
2024/02/24 00:34:03;;;;;;;;;;;;;;;2.49;100.00;94024.59;10367761;28;1914;-66
2024/02/24 00:39:05;;;;;;;;;;;;;;;2.37;100.00;94016.91;10369037;28;1362;-67
2024/02/24 00:44:09;;;;;;;;;;;;;;;2.33;100.00;94010.53;10368247;28;1369;-65
2024/02/24 00:49:12;;;;;;;;;;;;;;;2.25;100.00;94017.16;10368331;28;2605;-65
2024/02/24 00:54:14;;;;;;;;;;;;;;;2.22;100.00;94009.72;10366128;28;1910;-65
2024/02/24 00:59:17;;;;;;;;;;;;;;;2.13;100.00;94017.41;10368705;28;1607;-65
2024/02/24 01:04:20;;;;;;;;;;;;;;;1.99;100.00;94011.03;10362150;28;1517;-65
2024/02/24 01:09:27;;;;;;;;;;;;;;;2.01;100.00;94014.22;10362257;28;1883;-65
2024/02/24 01:14:29;;;;;;;;;;;;;;;1.92;100.00;94018.47;10366330;28;1711;-64
2024/02/24 01:19:32;;;;;;;;;;;;;;;1.80;100.00;94026.63;10363707;28;1357;-65
2024/02/24 01:24:35;;;;;;;;;;;;;;;1.78;100.00;94033.25;10366773;28;1337;-65
2024/02/24 01:29:37;;;;;;;;;;;;;;;1.81;100.00;94038.81;10363297;28;2528;-65
2024/02/24 01:34:40;;;;;;;;;;;;;;;1.85;100.00;94039.13;10363311;28;1883;-65
2024/02/24 01:39:42;;;;;;;;;;;;;;;1.92;100.00;94044.97;10364671;28;1514;-65
2024/02/24 01:44:45;;;;;;;;;;;;;;;1.88;100.00;94041.22;10364586;28;1596;-65
2024/02/24 01:49:48;;;;;;;;;;;;;;;1.87;100.00;94045.72;10365262;28;1914;-66
2024/02/24 01:54:50;;;;;;;;;;;;;;;1.93;100.00;94049.19;10367285;28;2532;-66
2024/02/24 01:59:53;;;;;;;;;;;;;;;1.92;100.00;94060.84;10374234;28;1506;-66
2024/02/24 02:04:56;;;;;;;;;;;;;;;1.84;100.00;94053.38;10370217;28;1454;-74
2024/02/24 02:09:59;;;;;;;;;;;;;;;1.82;100.00;94058.16;10371833;28;1919;-73
2024/02/24 02:15:03;;;;;;;;;;;;;;;1.71;100.00;94065.28;10374692;28;1349;-67
2024/02/24 02:20:06;;;;;;;;;;;;;;;1.61;100.00;94066.06;10376310;28;2347;-64
2024/02/24 02:25:10;;;;;;;;;;;;;;;1.62;100.00;94065.00;10376113;28;1585;-66
2024/02/24 02:30:13;;;;;;;;;;;;;;;1.54;100.00;94067.34;10374097;28;1910;-65
2024/02/24 02:35:16;;;;;;;;;;;;;;;1.43;100.00;94063.84;10372567;28;1644;-65
2024/02/24 02:40:19;;;;;;;;;;;;;;;1.46;100.00;94059.88;10361589;28;1514;-64
2024/02/24 02:45:22;;;;;;;;;;;;;;;1.36;100.00;94071.22;10370998;28;1711;-64
2024/02/24 02:50:24;;;;;;;;;;;;;;;1.21;100.00;94079.91;10368226;28;1883;-66
2024/02/24 02:55:27;;;;;;;;;;;;;;;1.23;100.00;94087.59;10371273;28;1588;-65
2024/02/24 03:00:30;;;;;;;;;;;;;;;1.17;100.00;94081.47;10369295;28;2190;-69
2024/02/24 03:05:32;;;;;;;;;;;;;;;1.08;100.00;94085.63;10363810;28;1545;-64
2024/02/24 03:10:35;;;;;;;;;;;;;;;0.96;100.00;94088.47;10374138;28;1919;-64
2024/02/24 03:15:37;;;;;;;;;;;;;;;1.05;100.00;94084.28;10363040;28;1394;-63
2024/02/24 03:20:40;;;;;;;;;;;;;;;1.00;100.00;94089.53;10362751;28;2614;-64
2024/02/24 03:25:42;;;;;;;;;;;;;;;0.91;100.00;94101.66;10364236;28;1111;-65
2024/02/24 03:30:45;;;;;;;;;;;;;;;0.88;100.00;94104.81;10363787;28;1963;-65
2024/02/24 03:35:47;;;;;;;;;;;;;;;0.79;100.00;94108.97;10368303;28;1700;-66
2024/02/24 03:40:50;;;;;;;;;;;;;;;0.68;100.00;94108.09;10363549;28;1936;-63
2024/02/24 03:45:52;;;;;;;;;;;;;;;0.60;100.00;94105.13;10362411;28;1346;-64
2024/02/24 03:50:55;;;;;;;;;;;;;;;0.56;100.00;94106.66;10360887;28;1926;-64
2024/02/24 03:55:57;;;;;;;;;;;;;;;0.43;100.00;94113.97;10363547;28;2394;-64
2024/02/24 04:01:00;;;;;;;;;;;;;;;0.36;100.00;94108.09;10364766;28;1369;-66
2024/02/24 04:06:03;;;;;;;;;;;;;;;0.40;100.00;94111.84;10362923;28;1401;-64
2024/02/24 04:11:05;;;;;;;;;;;;;;;0.51;100.00;94120.66;10360290;28;1947;-64
2024/02/24 04:16:08;;;;;;;;;;;;;;;0.52;100.00;94116.97;10363711;28;1389;-64
2024/02/24 04:21:11;;;;;;;;;;;;;;;0.47;100.00;94107.13;10367196;28;1434;-64
2024/02/24 04:26:14;;;;;;;;;;;;;;;0.41;100.00;94121.34;10360918;28;1647;-67
2024/02/24 04:31:16;;;;;;;;;;;;;;;0.42;100.00;94125.59;10358420;28;1985;-66
2024/02/24 04:36:19;;;;;;;;;;;;;;;0.45;100.00;94130.41;10357019;28;1365;-69
2024/02/24 04:41:21;;;;;;;;;;;;;;;0.52;100.00;94130.19;10363475;28;1290;-65
2024/02/24 04:46:24;;;;;;;;;;;;;;;0.49;100.00;94130.69;10360548;28;1350;-64
2024/02/24 04:51:26;;;;;;;;;;;;;;;0.58;100.00;94139.75;10359979;28;1914;-64
2024/02/24 04:56:28;;;;;;;;;;;;;;;0.60;100.00;94142.16;10361038;28;2265;-64
2024/02/24 05:01:31;;;;;;;;;;;;;;;0.58;100.00;94154.84;10365670;28;1629;-65
2024/02/24 05:06:34;;;;;;;;;;;;;;;0.43;100.00;94158.13;10363268;28;1438;-64
2024/02/24 05:11:36;;;;;;;;;;;;;;;0.34;100.00;94160.41;10364799;28;1914;-65
2024/02/24 05:16:39;;;;;;;;;;;;;;;0.25;100.00;94161.88;10360084;28;1703;-64
2024/02/24 05:21:42;;;;;;;;;;;;;;;0.21;100.00;94166.09;10362907;28;1400;-65
2024/02/24 05:26:45;;;;;;;;;;;;;;;0.33;100.00;94179.16;10352661;28;1361;-65
2024/02/24 05:31:48;;;;;;;;;;;;;;;0.26;100.00;94174.88;10359683;28;2032;-65
2024/02/24 05:36:50;;;;;;;;;;;;;;;0.15;100.00;94182.94;10362924;28;1309;-64
2024/02/24 05:41:52;;;;;;;;;;;;;;;0.05;100.00;94188.09;10357332;28;1014;-64
2024/02/24 05:46:55;;;;;;;;;;;;;;;-0.01;100.00;94195.94;10361499;28;2250;-65
2024/02/24 05:51:57;;;;;;;;;;;;;;;-0.01;100.00;94193.31;10359382;28;2597;-64
2024/02/24 05:57:02;;;;;;;;;;;;;;;0.04;100.00;94197.88;10362420;28;1695;-65
2024/02/24 06:02:05;;;;;;;;;;;;;;;0.14;100.00;94202.47;10358340;28;1475;-65
2024/02/24 06:07:07;;;;;;;;;;;;;;;0.22;100.00;94199.41;10361419;28;1803;-64
2024/02/24 06:12:10;;;;;;;;;;;;;;;0.22;100.00;94215.25;10365627;28;1977;-65
2024/02/24 06:17:13;;;;;;;;;;;;;;;0.33;100.00;94211.69;10362951;28;1513;-69
2024/02/24 06:22:16;;;;;;;;;;;;;;;0.41;100.00;94213.88;10352304;28;1802;-71
2024/02/24 06:27:19;;;;;;;;;;;;;;;0.47;100.00;94228.75;10361496;28;1271;-67
2024/02/24 06:32:21;;;;;;;;;;;;;;;0.47;100.00;94239.31;10355092;28;1902;-66
2024/02/24 06:37:24;;;;;;;;;;;;;;;0.65;100.00;94245.34;10362940;28;2636;-64
2024/02/24 06:42:26;;;;;;;;;;;;;;;0.62;100.00;94245.81;10369586;28;1511;-64
2024/02/24 06:47:29;;;;;;;;;;;;;;;0.62;100.00;94248.47;10368299;28;1503;-69
2024/02/24 06:52:32;;;;;;;;;;;;;;;0.78;100.00;94266.09;10369288;28;1914;-65
2024/02/24 06:57:34;;;;;;;;;;;;;;;0.89;100.00;94272.25;10365344;28;1235;-65
2024/02/24 07:02:37;;;;;;;;;;;;;;;1.10;100.00;94270.63;10365778;28;1350;-65
2024/02/24 07:07:40;;;;;;;;;;;;;;;1.21;100.00;94274.94;10366066;28;2218;-64
2024/02/24 07:12:42;;;;;;;;;;;;;;;1.36;100.00;94272.44;10373802;28;1942;-65
2024/02/24 07:17:45;;;;;;;;;;;;;;;1.40;100.00;94273.53;10369218;28;1395;-65
2024/02/24 07:22:48;;;;;;;;;;;;;;;1.49;100.00;94287.09;10382785;28;1389;-66
2024/02/24 07:27:51;;;;;;;;;;;;;;;1.71;100.00;94301.03;10366054;28;2846;-64
2024/02/24 07:32:54;;;;;;;;;;;;;;;1.84;100.00;94319.13;10368393;28;1981;-66
2024/02/24 07:37:57;;;;;;;;;;;;;;;1.98;100.00;94335.41;10363562;28;1588;-65
2024/02/24 07:43:00;;;;;;;;;;;;;;;2.23;100.00;94341.91;10372731;28;1745;-67
2024/02/24 07:48:02;;;;;;;;;;;;;;;2.35;100.00;94359.22;10373807;28;1512;-74
2024/02/24 07:53:07;;;;;;;;;;;;;;;2.46;100.00;94357.44;10365541;28;1911;-69
2024/02/24 07:58:09;;;;;;;;;;;;;;;2.72;100.00;94363.66;10371640;28;1005;-75
2024/02/24 08:03:12;;;;;;;;;;;;;;;2.86;100.00;94362.16;10377471;28;1837;-68
2024/02/24 08:08:14;;;;;;;;;;;;;;;3.08;100.00;94372.56;10364923;28;1373;-67
2024/02/24 08:13:17;;;;;;;;;;;;;;;3.31;100.00;94386.44;10382016;28;2743;-65
2024/02/24 08:18:19;;;;;;;;;;;;;;;3.55;100.00;94392.88;10367164;28;1595;-67
2024/02/24 08:23:22;;;;;;;;;;;;;;;3.82;100.00;94408.59;10367706;28;1377;-67
2024/02/24 08:28:25;;;;;;;;;;;;;;;4.09;100.00;94411.00;10368618;28;1518;-67
2024/02/24 08:33:27;;;;;;;;;;;;;;;4.47;100.00;94422.16;10367850;28;1915;-68
2024/02/24 08:38:31;;;;;;;;;;;;;;;4.69;100.00;94425.31;10363793;28;1354;-65
2024/02/24 08:43:34;;;;;;;;;;;;;;;4.97;100.00;94426.59;10368759;28;1904;-66
2024/02/24 08:48:36;;;;;;;;;;;;;;;5.20;100.00;94421.69;10373170;28;1004;-64
2024/02/24 08:53:39;;;;;;;;;;;;;;;5.34;100.00;94439.50;10361756;28;1938;-65
2024/02/24 08:58:41;;;;;;;;;;;;;;;5.47;100.00;94445.28;10362725;28;2810;-64
2024/02/24 09:03:44;;;;;;;;;;;;;;;5.42;100.00;94454.94;10365887;28;1577;-65
2024/02/24 09:08:46;;;;;;;;;;;;;;;5.60;100.00;94450.06;10358030;28;1401;-65
2024/02/24 09:13:49;;;;;;;;;;;;;;;5.83;100.00;94451.25;10362051;28;2078;-64
2024/02/24 09:18:52;;;;;;;;;;;;;;;6.01;100.00;94460.50;10357671;28;1384;-65
2024/02/24 09:23:55;;;;;;;;;;;;;;;6.16;100.00;94465.75;10354912;28;1440;-67
2024/02/24 09:28:57;;;;;;;;;;;;;;;6.28;100.00;94468.06;10359942;28;1936;-65
2024/02/24 09:34:00;;;;;;;;;;;;;;;6.38;100.00;94490.16;10370390;28;2015;-65
2024/02/24 09:39:03;;;;;;;;;;;;;;;6.56;100.00;94493.22;10357568;28;1409;-66
2024/02/24 09:44:05;;;;;;;;;;;;;;;6.73;100.00;94491.72;10364129;28;1369;-65
2024/02/24 09:49:07;;;;;;;;;;;;;;;6.75;100.00;94494.13;10364915;28;2691;-64
2024/02/24 09:54:10;;;;;;;;;;;;;;;6.66;100.00;94495.78;10346174;28;1898;-63
2024/02/24 09:59:13;;;;;;;;;;;;;;;6.73;100.00;94493.59;10364595;28;1570;-64
2024/02/24 10:04:15;;;;;;;;;;;;;;;6.74;100.00;94489.84;10365822;28;1469;-64
2024/02/24 10:09:18;;;;;;;;;;;;;;;7.14;100.00;94501.25;10367306;28;1416;-65
2024/02/24 10:14:21;;;;;;;;;;;;;;;7.35;100.00;94507.19;10368064;28;1922;-64
2024/02/24 10:19:23;;;;;;;;;;;;;;;7.60;100.00;94514.91;10367795;28;1519;-64
2024/02/24 10:24:27;;;;;;;;;;;;;;;8.15;100.00;94519.88;10364741;28;1310;-64
2024/02/24 10:29:32;;;;;;;;;;;;;;;8.33;100.00;94519.88;10366541;28;1243;-63
2024/02/24 10:34:35;;;;;;;;;;;;;;;8.43;100.00;94526.97;10371022;28;1906;-62
2024/02/24 10:39:37;;;;;;;;;;;;;;;9.05;100.00;94527.63;10371532;28;2468;-64
2024/02/24 10:44:40;;;;;;;;;;;;;;;9.41;100.00;94530.44;10373557;28;1638;-69
2024/02/24 10:49:43;;;;;;;;;;;;;;;9.07;100.00;94536.16;10379111;28;1486;-61
2024/02/24 10:54:45;;;;;;;;;;;;;;;9.52;100.00;94536.44;10369704;28;2001;-63
2024/02/24 10:59:48;;;;;;;;;;;;;;;9.35;100.00;94537.03;10362762;28;1530;-63
2024/02/24 11:04:50;;;;;;;;;;;;;;;9.75;100.00;94538.16;10353717;28;1799;-64
2024/02/24 11:09:53;;;;;;;;;;;;;;;9.65;100.00;94530.28;10365253;28;1502;-65
2024/02/24 11:14:56;;;;;;;;;;;;;;;8.98;100.00;94527.22;10371014;28;1914;-64
2024/02/24 11:19:58;;;;;;;;;;;;;;;8.84;100.00;94526.34;10370265;28;1852;-66
2024/02/24 11:25:01;;;;;;;;;;;;;;;8.94;100.00;94524.31;10371692;28;1478;-64
2024/02/24 11:30:04;;;;;;;;;;;;;;;9.05;100.00;94514.22;10372751;28;1474;-63
2024/02/24 11:35:06;;;;;;;;;;;;;;;9.52;100.00;94512.28;10367193;28;1923;-63
2024/02/24 11:40:09;;;;;;;;;;;;;;;9.83;100.00;94527.81;10376444;28;2811;-64
2024/02/24 11:45:11;;;;;;;;;;;;;;;10.33;100.00;94511.75;10359429;28;1557;-64
2024/02/24 11:50:14;;;;;;;;;;;;;;;10.48;100.00;94514.09;10364709;28;1816;-65
2024/02/24 11:55:17;;;;;;;;;;;;;;;10.77;100.00;94516.41;10365369;28;1961;-65
2024/02/24 12:00:20;;;;;;;;;;;;;;;10.94;100.00;94515.72;10375204;28;1439;-64
2024/02/24 12:05:23;;;;;;;;;;;;;;;10.52;100.00;94518.56;10360675;28;1835;-65
2024/02/24 12:10:26;;;;;;;;;;;;;;;10.17;95.64;94512.06;10363168;28;1506;-66
2024/02/24 12:15:28;;;;;;;;;;;;;;;9.99;100.00;94505.75;10362098;28;1989;-74
2024/02/24 12:20:31;;;;;;;;;;;;;;;10.22;100.00;94511.94;10366726;28;1736;-71
2024/02/24 12:25:35;;;;;;;;;;;;;;;9.91;99.70;94501.06;10368509;28;2351;-70
2024/02/24 12:30:38;;;;;;;;;;;;;;;9.65;99.32;94508.81;10361852;28;1534;-70
2024/02/24 12:35:40;;;;;;;;;;;;;;;9.92;90.47;94499.16;10359249;28;1972;-69
2024/02/24 12:40:44;;;;;;;;;;;;;;;10.31;86.90;94500.50;10347722;28;2241;-66
2024/02/24 12:45:49;;;;;;;;;;;;;;;9.84;84.26;94500.66;10352480;28;1796;-64
2024/02/24 12:50:52;;;;;;;;;;;;;;;10.27;87.07;94517.25;10360406;28;1817;-64
2024/02/24 12:55:55;;;;;;;;;;;;;;;9.98;83.41;94514.06;10355908;28;1918;-64
2024/02/24 13:00:57;;;;;;;;;;;;;;;10.39;90.06;94516.72;10363936;28;1435;-65
2024/02/24 13:06:00;;;;;;;;;;;;;;;10.42;84.22;94515.31;10364014;28;1511;-63
2024/02/24 13:11:03;;;;;;;;;;;;;;;10.24;86.13;94504.44;10365110;28;1372;-64
2024/02/24 13:16:06;;;;;;;;;;;;;;;9.90;82.61;94507.53;10365519;28;1941;-65
2024/02/24 13:21:09;;;;;;;;;;;;;;;10.20;84.20;94503.41;10371404;28;2410;-65
2024/02/24 13:26:12;;;;;;;;;;;;;;;10.16;83.61;94507.00;10367812;28;1523;-65
2024/02/24 13:31:14;;;;;;;;;;;;;;;10.03;85.55;94511.28;10368552;28;1585;-64
2024/02/24 13:36:16;;;;;;;;;;;;;;;10.07;87.00;94509.59;10357692;28;1937;-65
2024/02/24 13:41:19;;;;;;;;;;;;;;;10.03;86.89;94514.75;10354233;28;1905;-64
2024/02/24 13:46:22;;;;;;;;;;;;;;;9.29;96.90;94521.28;10354845;28;2020;-66
2024/02/24 13:51:25;;;;;;;;;;;;;;;8.96;100.00;94539.28;10363457;28;2362;-75
2024/02/24 13:56:28;;;;;;;;;;;;;;;9.21;99.57;94542.34;10359903;28;2038;-72
2024/02/24 14:01:33;;;;;;;;;;;;;;;9.25;99.57;94541.75;10359509;28;2245;-76
2024/02/24 14:06:36;;;;;;;;;;;;;;;9.41;98.13;94543.06;10359240;28;2687;-67
2024/02/24 14:11:39;;;;;;;;;;;;;;;9.42;96.99;94542.00;10359926;28;2085;-66
2024/02/24 14:16:44;;;;;;;;;;;;;;;8.85;100.00;94544.03;10365338;28;1987;-64
2024/02/24 14:21:47;;;;;;;;;;;;;;;8.46;100.00;94552.38;10362228;28;1912;-64
2024/02/24 14:26:51;;;;;;;;;;;;;;;8.39;100.00;94547.38;10361738;28;2076;-63
2024/02/24 14:31:57;;;;;;;;;;;;;;;8.51;100.00;94561.13;10359595;28;2308;-69
2024/02/24 14:36:59;;;;;;;;;;;;;;;8.31;100.00;94561.38;10365265;28;2106;-65
2024/02/24 14:42:02;;;;;;;;;;;;;;;7.79;100.00;94573.81;10359390;28;1946;-66
2024/02/24 14:47:07;;;;;;;;;;;;;;;7.95;100.00;94569.91;10361216;28;2057;-67
2024/02/24 14:52:10;;;;;;;;;;;;;;;7.79;100.00;94571.13;10370902;28;2121;-65
2024/02/24 14:57:12;;;;;;;;;;;;;;;8.30;100.00;94565.94;10355121;28;2006;-64
2024/02/24 15:02:15;;;;;;;;;;;;;;;8.36;100.00;94558.69;10354806;28;2657;-64
2024/02/24 15:07:37;;;;;;;;;;;;;;;7.94;100.00;94568.28;10355633;28;2141;-64
2024/02/24 15:12:42;;;;;;;;;;;;;;;8.00;100.00;94566.34;10360515;28;1900;-68
2024/02/24 15:17:45;;;;;;;;;;;;;;;7.99;100.00;94565.53;10355962;28;2051;-71
2024/02/24 15:22:50;;;;;;;;;;;;;;;8.08;100.00;94563.03;10359984;28;2041;-65
2024/02/24 15:27:52;;;;;;;;;;;;;;;7.83;100.00;94561.47;10361600;28;2087;-65
2024/02/24 15:32:57;;;;;;;;;;;;;;;7.77;100.00;94571.44;10362039;28;2142;-64
2024/02/24 15:38:00;;;;;;;;;;;;;;;7.63;100.00;94561.69;10361887;28;2069;-64
2024/02/24 15:43:03;;;;;;;;;;;;;;;7.53;100.00;94566.06;10353832;28;2078;-65
2024/02/24 15:48:05;;;;;;;;;;;;;;;7.47;100.00;94563.72;10356804;28;2038;-64
2024/02/24 15:53:08;;;;;;;;;;;;;;;7.37;100.00;94563.81;10361065;28;2065;-65
2024/02/24 15:58:11;;;;;;;;;;;;;;;7.25;100.00;94572.22;10359451;28;2057;-65
2024/02/24 16:03:13;;;;;;;;;;;;;;;7.15;100.00;94572.31;10358337;28;2058;-65
2024/02/24 16:08:16;;;;;;;;;;;;;;;7.07;100.00;94575.59;10353992;28;3052;-65
2024/02/24 16:13:18;;;;;;;;;;;;;;;6.98;100.00;94581.53;10357295;28;1906;-64
2024/02/24 16:18:21;;;;;;;;;;;;;;;6.89;100.00;94585.91;10361770;28;2029;-63
2024/02/24 16:23:23;;;;;;;;;;;;;;;6.79;100.00;94583.28;10361583;28;2050;-65
2024/02/24 16:28:26;;;;;;;;;;;;;;;6.69;100.00;94594.06;10353272;28;2057;-65
2024/02/24 16:33:28;;;;;;;;;;;;;;;6.59;100.00;94594.13;10353327;28;2047;-65
2024/02/24 16:38:31;;;;;;;;;;;;;;;6.52;100.00;94594.44;10360979;28;1941;-64
2024/02/24 16:43:34;;;;;;;;;;;;;;;6.38;100.00;94604.13;10355635;28;2125;-65
2024/02/24 16:48:37;;;;;;;;;;;;;;;6.31;100.00;94608.97;10347187;28;2954;-65
2024/02/24 16:53:40;;;;;;;;;;;;;;;6.31;100.00;94607.09;10355371;28;2169;-65
2024/02/24 16:58:43;;;;;;;;;;;;;;;6.18;100.00;94607.69;10357266;28;1982;-65
2024/02/24 17:03:46;;;;;;;;;;;;;;;6.06;100.00;94620.56;10350033;28;1956;-65
2024/02/24 17:08:48;;;;;;;;;;;;;;;6.00;100.00;94621.66;10354490;28;2170;-64
2024/02/24 17:13:51;;;;;;;;;;;;;;;5.88;100.00;94619.25;10359568;28;1911;-62
2024/02/24 17:18:53;;;;;;;;;;;;;;;5.73;100.00;94630.78;10367005;28;2401;-65
2024/02/24 17:23:57;;;;;;;;;;;;;;;5.72;100.00;94631.00;10353715;28;1998;-65
2024/02/24 17:29:00;;;;;;;;;;;;;;;5.72;100.00;94629.16;10345630;28;3039;-64
2024/02/24 17:34:02;;;;;;;;;;;;;;;5.75;100.00;94647.28;10369372;28;2034;-64
2024/02/24 17:39:06;;;;;;;;;;;;;;;5.74;100.00;94640.34;10365318;28;1866;-65
2024/02/24 17:44:09;;;;;;;;;;;;;;;5.74;100.00;94651.03;10356132;28;1364;-64
2024/02/24 17:49:12;;;;;;;;;;;;;;;5.82;100.00;94669.13;10368769;28;1869;-64
2024/02/24 17:54:15;;;;;;;;;;;;;;;5.73;100.00;94665.44;10361541;28;1914;-64
2024/02/24 17:59:18;;;;;;;;;;;;;;;5.70;100.00;94660.63;10356878;28;1574;-64
2024/02/24 18:04:21;;;;;;;;;;;;;;;5.71;100.00;94664.88;10362674;28;1797;-64
2024/02/24 18:09:24;;;;;;;;;;;;;;;5.68;100.00;94679.56;10367968;28;1611;-64
2024/02/24 18:14:26;;;;;;;;;;;;;;;5.63;100.00;94679.56;10363237;28;1917;-64
2024/02/24 18:19:28;;;;;;;;;;;;;;;5.61;100.00;94679.03;10361793;28;3172;-64
2024/02/24 18:24:31;;;;;;;;;;;;;;;5.57;100.00;94682.50;10366378;28;1667;-63
2024/02/24 18:29:33;;;;;;;;;;;;;;;5.49;100.00;94680.38;10362672;28;1952;-64
2024/02/24 18:34:37;;;;;;;;;;;;;;;5.46;100.00;94684.38;10365162;28;1918;-63
2024/02/24 18:39:40;;;;;;;;;;;;;;;5.48;100.00;94678.78;10376931;28;1462;-63
2024/02/24 18:44:44;;;;;;;;;;;;;;;5.43;100.00;94683.06;10365935;28;1490;-65
2024/02/24 18:49:47;;;;;;;;;;;;;;;5.47;100.00;94677.16;10370084;28;1874;-64
2024/02/24 18:54:51;;;;;;;;;;;;;;;5.44;100.00;94673.19;10360815;28;1979;-66
2024/02/24 18:59:55;;;;;;;;;;;;;;;5.48;100.00;94668.13;10364192;28;1576;-65
2024/02/24 19:04:57;;;;;;;;;;;;;;;5.42;100.00;94678.78;10360612;28;2722;-65
2024/02/24 19:10:00;;;;;;;;;;;;;;;5.50;100.00;94685.44;10369549;28;1734;-65
2024/02/24 19:15:03;;;;;;;;;;;;;;;5.56;100.00;94694.25;10368341;28;2006;-64
2024/02/24 19:20:05;;;;;;;;;;;;;;;5.62;100.00;94687.84;10368714;28;1470;-63
2024/02/24 19:25:08;;;;;;;;;;;;;;;5.66;100.00;94692.38;10359213;28;1733;-65
2024/02/24 19:30:10;;;;;;;;;;;;;;;5.60;100.00;94700.66;10360474;28;1990;-65
2024/02/24 19:35:13;;;;;;;;;;;;;;;5.60;100.00;94703.31;10361016;28;1977;-66
2024/02/24 19:40:16;;;;;;;;;;;;;;;5.64;100.00;94702.50;10361405;28;1928;-66
2024/02/24 19:45:18;;;;;;;;;;;;;;;5.57;100.00;94695.84;10361673;28;1463;-66
2024/02/24 19:50:21;;;;;;;;;;;;;;;5.58;100.00;94716.88;10352802;28;1874;-65
2024/02/24 19:55:23;;;;;;;;;;;;;;;5.56;100.00;94703.03;10360922;28;3012;-64
2024/02/24 20:00:28;;;;;;;;;;;;;;;5.54;100.00;94704.38;10355999;28;1476;-64
2024/02/24 20:05:30;;;;;;;;;;;;;;;5.58;100.00;94711.56;10363902;28;1497;-66
2024/02/24 20:10:33;;;;;;;;;;;;;;;5.58;100.00;94713.41;10349894;28;1477;-66
2024/02/24 20:15:36;;;;;;;;;;;;;;;5.67;100.00;94714.50;10362400;28;1910;-72
2024/02/24 20:20:39;;;;;;;;;;;;;;;5.71;100.00;94726.22;10362523;28;1658;-71
2024/02/24 20:25:42;;;;;;;;;;;;;;;5.73;100.00;94724.09;10356990;28;2089;-74
2024/02/24 20:30:44;;;;;;;;;;;;;;;5.79;100.00;94725.69;10370766;28;1474;-75
2024/02/24 20:35:47;;;;;;;;;;;;;;;5.77;100.00;94733.13;10358363;28;2738;-64
2024/02/24 20:40:52;;;;;;;;;;;;;;;5.73;100.00;94734.75;10360414;28;1535;-65
2024/02/24 20:45:55;;;;;;;;;;;;;;;5.73;100.00;94739.28;10354640;28;1425;-64
2024/02/24 20:50:58;;;;;;;;;;;;;;;5.73;100.00;94748.09;10358305;28;1613;-69
2024/02/24 20:56:01;;;;;;;;;;;;;;;5.61;100.00;94745.69;10352832;28;1968;-67
2024/02/24 21:01:03;;;;;;;;;;;;;;;5.64;100.00;94755.00;10354714;28;1542;-68
2024/02/24 21:06:07;;;;;;;;;;;;;;;5.60;100.00;94756.63;10361328;28;1792;-67
2024/02/24 21:11:09;;;;;;;;;;;;;;;5.58;100.00;94764.06;10348545;28;1474;-65
2024/02/24 21:16:12;;;;;;;;;;;;;;;5.73;100.00;94769.41;10359492;28;1903;-64
2024/02/24 21:21:15;;;;;;;;;;;;;;;5.76;100.00;94760.06;10363212;28;2869;-63
2024/02/24 21:26:18;;;;;;;;;;;;;;;5.63;100.00;94758.75;10354525;28;1506;-65
2024/02/24 21:31:21;;;;;;;;;;;;;;;5.59;100.00;94768.34;10357662;28;1543;-64
2024/02/24 21:36:24;;;;;;;;;;;;;;;5.69;100.00;94793.13;10351460;28;1914;-66
2024/02/24 21:41:27;;;;;;;;;;;;;;;5.71;100.00;94792.88;10357549;28;2091;-66
2024/02/24 21:46:29;;;;;;;;;;;;;;;5.76;100.00;94787.53;10359877;28;1813;-65
2024/02/24 21:51:31;;;;;;;;;;;;;;;5.88;100.00;94798.75;10360146;28;1890;-64
2024/02/24 21:56:34;;;;;;;;;;;;;;;5.88;100.00;94801.41;10359325;28;1950;-64
2024/02/24 22:01:37;;;;;;;;;;;;;;;5.85;100.00;94791.28;10358484;28;1576;-63
2024/02/24 22:06:39;;;;;;;;;;;;;;;5.93;100.00;94792.63;10348734;28;2637;-63
2024/02/24 22:11:42;;;;;;;;;;;;;;;5.93;100.00;94793.44;10363766;28;1614;-64
2024/02/24 22:16:45;;;;;;;;;;;;;;;5.95;100.00;94796.63;10357113;28;1973;-63
2024/02/24 22:21:49;;;;;;;;;;;;;;;5.85;100.00;94783.28;10361774;28;2026;-69
2024/02/24 22:26:53;;;;;;;;;;;;;;;5.91;100.00;94782.22;10358058;28;2129;-62
2024/02/24 22:31:56;;;;;;;;;;;;;;;5.90;100.00;94779.78;10360535;28;2058;-64
2024/02/24 22:36:58;;;;;;;;;;;;;;;5.88;100.00;94781.94;10359934;28;2194;-64
2024/02/24 22:42:01;;;;;;;;;;;;;;;5.77;100.00;94773.13;10365458;28;2140;-64
2024/02/24 22:47:06;;;;;;;;;;;;;;;5.78;100.00;94779.28;10359760;28;2108;-63
2024/02/24 22:52:10;;;;;;;;;;;;;;;5.86;100.00;94776.09;10366604;28;2064;-64
2024/02/24 22:57:13;;;;;;;;;;;;;;;5.95;100.00;94779.81;10367129;28;1922;-63
2024/02/24 23:02:16;;;;;;;;;;;;;;;6.02;100.00;94779.56;10359572;28;2370;-64
2024/02/24 23:07:19;;;;;;;;;;;;;;;6.06;100.00;94786.75;10360630;28;2115;-63
2024/02/24 23:12:21;;;;;;;;;;;;;;;6.02;100.00;94790.22;10356881;28;1969;-62
2024/02/24 23:17:25;;;;;;;;;;;;;;;5.94;100.00;94794.25;10357647;28;2093;-62
2024/02/24 23:22:27;;;;;;;;;;;;;;;5.88;100.00;94793.41;10354649;28;1919;-62
2024/02/24 23:27:30;;;;;;;;;;;;;;;5.70;100.00;94793.94;10363908;28;2062;-63
2024/02/24 23:32:33;;;;;;;;;;;;;;;5.64;100.00;94787.81;10365132;28;2019;-64
2024/02/24 23:37:35;;;;;;;;;;;;;;;5.64;100.00;94776.34;10357706;28;2174;-65
2024/02/24 23:42:38;;;;;;;;;;;;;;;5.59;100.00;94769.13;10355371;28;2813;-64
2024/02/24 23:47:41;;;;;;;;;;;;;;;5.69;100.00;94753.16;10357452;28;2149;-63
2024/02/24 23:52:43;;;;;;;;;;;;;;;5.70;100.00;94756.59;10372848;28;1935;-69
2024/02/24 23:57:46;;;;;;;;;;;;;;;5.73;100.00;94748.09;10356964;28;2233;-67
